Time;durP1;ratioP1;P1;durP2;ratioP2;P2;SDS_P1;SDS_P2;PMS_P1;PMS_P2;Temp;Humidity;BMP_temperature;BMP_pressure;BME280_temperature;BME280_humidity;BME280_pressure;Samples;Min_cycle;Max_cycle;Signal;HPM_P1;HPM_P2
2021/11/19 00:01:59;;;;;;;29.15;6.78;;;;;;;10.89;100.00;102934.97;5014951;28;20478;-76
2021/11/19 00:04:26;;;;;;;13.02;6.22;;;;;;;10.91;100.00;102939.47;5028790;28;20052;-77
2021/11/19 00:06:53;;;;;;;15.15;6.10;;;;;;;10.88;100.00;102941.97;5014546;28;20091;-77
2021/11/19 00:09:19;;;;;;;20.20;6.70;;;;;;;10.91;100.00;102938.59;5013030;28;20488;-76
2021/11/19 00:11:47;;;;;;;18.05;6.20;;;;;;;10.91;100.00;102950.00;5012089;28;20034;-76
2021/11/19 00:14:14;;;;;;;22.65;6.60;;;;;;;10.96;100.00;102953.78;5015128;28;20022;-76
2021/11/19 00:16:42;;;;;;;18.45;6.70;;;;;;;11.01;100.00;102951.34;5012355;28;20030;-75
2021/11/19 00:19:09;;;;;;;21.58;5.75;;;;;;;11.06;100.00;102956.88;5013774;28;20050;-76
2021/11/19 00:21:37;;;;;;;15.80;6.25;;;;;;;11.12;100.00;102954.50;5012178;28;20076;-76
2021/11/19 00:24:03;;;;;;;13.27;6.45;;;;;;;11.14;100.00;102955.50;5014570;28;20026;-77
2021/11/19 00:26:30;;;;;;;13.95;6.70;;;;;;;11.19;100.00;102950.44;5011892;28;20095;-76
2021/11/19 00:28:56;;;;;;;17.98;6.50;;;;;;;11.22;100.00;102956.78;5005930;28;20022;-76
2021/11/19 00:31:23;;;;;;;23.42;6.45;;;;;;;11.26;100.00;102958.72;5030260;28;20033;-77
2021/11/19 00:33:50;;;;;;;12.18;5.75;;;;;;;11.33;100.00;102961.63;5013416;28;20087;-76
2021/11/19 00:36:18;;;;;;;12.00;5.53;;;;;;;11.35;100.00;102957.34;5017324;28;20038;-77
2021/11/19 00:38:46;;;;;;;12.70;5.07;;;;;;;11.37;100.00;102951.34;5011941;28;20120;-76
2021/11/19 00:41:13;;;;;;;13.13;5.10;;;;;;;11.43;100.00;102950.72;5014785;28;20476;-76
2021/11/19 00:43:39;;;;;;;21.15;5.30;;;;;;;11.47;100.00;102948.28;5016595;28;22111;-75
2021/11/19 00:46:06;;;;;;;16.92;4.90;;;;;;;11.50;100.00;102941.34;5013984;28;20100;-77
2021/11/19 00:48:33;;;;;;;13.63;5.07;;;;;;;11.51;100.00;102940.53;5011304;28;20077;-77
2021/11/19 00:51:18;;;;;;;15.75;5.78;;;;;;;11.52;100.00;102945.00;5012465;28;20037;-76
2021/11/19 00:53:47;;;;;;;14.70;5.20;;;;;;;11.54;100.00;102948.56;5014950;28;20493;-77
2021/11/19 00:56:18;;;;;;;11.48;5.13;;;;;;;11.61;100.00;102955.94;5010119;28;20026;-77
2021/11/19 00:58:45;;;;;;;11.25;4.90;;;;;;;11.62;100.00;102948.13;5013562;28;20417;-76
2021/11/19 01:01:15;;;;;;;20.00;5.10;;;;;;;11.68;100.00;102951.84;5012971;28;20030;-77
2021/11/19 01:03:41;;;;;;;16.30;5.07;;;;;;;11.74;100.00;102938.94;5027845;28;20037;-77
2021/11/19 01:06:06;;;;;;;16.88;5.05;;;;;;;11.73;100.00;102945.94;5012766;28;20466;-76
2021/11/19 01:08:32;;;;;;;8.52;5.35;;;;;;;11.74;100.00;102937.22;5012333;28;20113;-76
2021/11/19 01:11:01;;;;;;;18.02;5.28;;;;;;;11.74;100.00;102941.59;5018267;28;20030;-77
2021/11/19 01:13:29;;;;;;;11.57;5.13;;;;;;;11.75;100.00;102952.22;5011639;28;20038;-76
2021/11/19 01:16:02;;;;;;;13.70;4.95;;;;;;;11.75;100.00;102946.94;5014721;28;20026;-76
2021/11/19 01:18:34;;;;;;;17.23;5.90;;;;;;;11.74;100.00;102944.22;5013698;28;20041;-75
2021/11/19 01:21:07;;;;;;;13.85;5.75;;;;;;;11.80;100.00;102937.50;5022137;28;20037;-76
2021/11/19 01:23:34;;;;;;;15.38;5.57;;;;;;;11.79;100.00;102930.41;5009959;28;20073;-77
2021/11/19 01:26:14;;;;;;;20.95;6.68;;;;;;;11.79;100.00;102935.69;5012272;28;20018;-76
2021/11/19 01:28:41;;;;;;;17.60;5.63;;;;;;;11.82;100.00;102934.94;5015154;28;20026;-76
2021/11/19 01:31:15;;;;;;;17.55;5.50;;;;;;;11.86;100.00;102935.97;5014336;28;21995;-76
2021/11/19 01:33:42;;;;;;;13.70;5.93;;;;;;;11.89;100.00;102936.09;5011982;28;20472;-76
2021/11/19 01:36:08;;;;;;;18.10;6.35;;;;;;;11.94;100.00;102937.22;5012669;28;20151;-77
2021/11/19 01:38:34;;;;;;;18.02;5.63;;;;;;;11.96;100.00;102940.84;5011654;28;20117;-77
2021/11/19 01:41:05;;;;;;;14.52;5.40;;;;;;;11.97;100.00;102934.75;5011859;28;20037;-77
2021/11/19 01:43:33;;;;;;;14.98;5.70;;;;;;;11.98;100.00;102928.63;5011317;28;20045;-76
2021/11/19 01:46:03;;;;;;;14.25;5.97;;;;;;;12.00;100.00;102929.59;5012158;28;20038;-77
2021/11/19 01:48:32;;;;;;;13.00;5.40;;;;;;;12.04;100.00;102930.63;5015117;28;20036;-76
2021/11/19 01:51:23;;;;;;;20.38;6.03;;;;;;;12.06;100.00;102931.59;5012538;28;20029;-76
2021/11/19 01:54:07;;;;;;;14.75;6.35;;;;;;;12.07;100.00;102936.97;5011712;28;20042;-76
2021/11/19 01:56:44;;;;;;;17.92;6.30;;;;;;;12.07;100.00;102921.13;5012259;28;20026;-77
2021/11/19 01:59:14;;;;;;;15.48;5.50;;;;;;;12.12;100.00;102934.50;5005450;28;20030;-77
2021/11/19 02:01:49;;;;;;;18.17;6.63;;;;;;;12.09;100.00;102924.72;5012784;28;20500;-77
2021/11/19 02:04:21;;;;;;;23.80;6.75;;;;;;;12.08;100.00;102936.09;5009464;28;20030;-77
2021/11/19 02:07:08;;;;;;;18.63;6.18;;;;;;;12.07;100.00;102931.69;5012648;28;20061;-77
2021/11/19 02:09:58;;;;;;;19.63;6.65;;;;;;;12.07;100.00;102931.69;5011565;28;20072;-77
2021/11/19 02:12:32;;;;;;;19.45;6.57;;;;;;;12.10;100.00;102937.09;5009799;28;20058;-75
2021/11/19 02:15:36;;;;;;;20.45;7.18;;;;;;;12.12;100.00;102940.69;5026039;28;20048;-76
2021/11/19 02:18:09;;;;;;;14.45;6.30;;;;;;;12.10;100.00;102937.09;4999555;28;20038;-76
2021/11/19 02:20:38;;;;;;;19.02;5.93;;;;;;;12.10;100.00;102936.16;4993406;28;20574;-76
2021/11/19 02:23:13;;;;;;;17.05;6.38;;;;;;;12.10;100.00;102929.19;5019861;28;20547;-76
2021/11/19 02:25:52;;;;;;;17.45;6.32;;;;;;;12.11;100.00;102928.34;5012458;28;20080;-77
2021/11/19 02:28:25;;;;;;;16.15;6.50;;;;;;;12.12;100.00;102924.84;5019291;28;20440;-76
2021/11/19 02:31:07;;;;;;;23.70;6.80;;;;;;;12.16;100.00;102925.00;5015555;28;20030;-76
2021/11/19 02:33:33;;;;;;;18.92;6.10;;;;;;;12.16;100.00;102925.91;5015039;28;20033;-76
2021/11/19 02:36:04;;;;;;;20.25;6.65;;;;;;;12.14;100.00;102919.66;5016642;28;20026;-76
2021/11/19 02:38:51;;;;;;;21.00;6.10;;;;;;;12.17;100.00;102921.50;5016120;28;20034;-77
2021/11/19 02:41:18;;;;;;;20.98;6.13;;;;;;;12.16;100.00;102909.19;5000521;28;20037;-76
2021/11/19 02:43:55;;;;;;;17.52;6.22;;;;;;;12.20;100.00;102905.81;5015310;28;20037;-76
2021/11/19 02:46:44;;;;;;;19.25;6.10;;;;;;;12.23;100.00;102900.66;5016238;28;20065;-76
2021/11/19 02:49:09;;;;;;;22.00;6.18;;;;;;;12.23;100.00;102905.94;5015766;28;20052;-76
2021/11/19 02:51:35;;;;;;;17.75;6.20;;;;;;;12.22;100.00;102904.13;5016859;28;20462;-76
2021/11/19 02:54:05;;;;;;;22.10;6.30;;;;;;;12.24;100.00;102902.47;5017765;28;20032;-77
2021/11/19 02:56:30;;;;;;;18.45;6.65;;;;;;;12.20;100.00;102909.34;5015977;28;20042;-77
2021/11/19 02:58:58;;;;;;;18.10;6.30;;;;;;;12.22;100.00;102904.13;5014257;28;20029;-76
2021/11/19 03:01:26;;;;;;;18.83;6.18;;;;;;;12.24;100.00;102906.00;5013975;28;20041;-76
2021/11/19 03:04:07;;;;;;;15.30;6.03;;;;;;;12.23;100.00;102905.94;5013734;28;20036;-76
2021/11/19 03:06:37;;;;;;;20.02;6.57;;;;;;;12.23;100.00;102903.31;5015759;28;20133;-75
2021/11/19 03:09:03;;;;;;;18.73;6.70;;;;;;;12.25;100.00;102898.97;5013776;28;20016;-76
2021/11/19 03:11:29;;;;;;;20.33;7.85;;;;;;;12.25;100.00;102906.91;5016371;28;20037;-77
2021/11/19 03:13:54;;;;;;;26.15;6.25;;;;;;;12.27;100.00;102902.59;5016432;28;20037;-77
2021/11/19 03:16:20;;;;;;;14.52;6.20;;;;;;;12.26;100.00;102906.06;5015437;28;20021;-75
2021/11/19 03:18:45;;;;;;;12.98;6.05;;;;;;;12.25;100.00;102904.25;5015924;28;20371;-76
2021/11/19 03:21:15;;;;;;;16.60;7.00;;;;;;;12.23;100.00;102906.84;5012234;28;20073;-76
2021/11/19 03:23:42;;;;;;;18.33;6.45;;;;;;;12.24;100.00;102907.75;5020785;28;20381;-76
2021/11/19 03:26:08;;;;;;;22.50;6.57;;;;;;;12.23;100.00;102905.94;5016325;28;20022;-76
2021/11/19 03:28:34;;;;;;;22.48;6.82;;;;;;;12.22;100.00;102904.13;5013566;28;20113;-76
2021/11/19 03:31:03;;;;;;;16.27;6.85;;;;;;;12.23;100.00;102900.66;5014393;28;20110;-76
2021/11/19 03:33:32;;;;;;;16.70;6.82;;;;;;;12.25;100.00;102901.63;5013902;28;20026;-76
2021/11/19 03:35:57;;;;;;;17.90;7.55;;;;;;;12.21;100.00;102907.59;5016179;28;20042;-77
2021/11/19 03:38:26;;;;;;;16.80;7.18;;;;;;;12.21;100.00;102910.25;5014286;28;20041;-76
2021/11/19 03:40:53;;;;;;;21.60;6.78;;;;;;;12.21;100.00;102902.31;5015072;28;20492;-75
2021/11/19 03:43:27;;;;;;;19.13;7.25;;;;;;;12.17;100.00;102906.59;5015121;28;20045;-76
2021/11/19 03:45:54;;;;;;;;;;;;;;;12.17;100.00;102910.94;5013701;28;20022;-76
2021/11/19 03:48:20;;;;;;;25.50;7.05;;;;;;;12.14;100.00;102912.63;5015512;28;19913;-76
2021/11/19 03:50:54;;;;;;;18.25;6.85;;;;;;;12.12;100.00;102903.75;5010524;28;20034;-77
2021/11/19 03:53:21;;;;;;;17.38;6.72;;;;;;;12.12;100.00;102909.00;5012931;28;20022;-75
2021/11/19 03:55:49;;;;;;;19.80;7.40;;;;;;;12.13;100.00;102910.81;5006857;28;20034;-76
2021/11/19 03:58:22;;;;;;;21.40;8.20;;;;;;;12.12;100.00;102914.28;5014740;28;20385;-76
2021/11/19 04:00:52;;;;;;;18.27;7.53;;;;;;;12.16;100.00;102915.34;5009840;28;20037;-76
2021/11/19 04:03:18;;;;;;;17.08;8.07;;;;;;;12.17;100.00;102913.59;5013676;28;20026;-76
2021/11/19 04:05:45;;;;;;;23.83;7.63;;;;;;;12.19;100.00;102919.84;5024835;28;20080;-76
2021/11/19 04:08:11;;;;;;;23.67;8.10;;;;;;;12.21;100.00;102920.81;5015338;28;20026;-76
2021/11/19 04:10:38;;;;;;;23.73;7.15;;;;;;;12.24;100.00;102918.31;5012604;28;20358;-77
2021/11/19 04:13:04;;;;;;;20.27;6.90;;;;;;;12.23;100.00;102917.41;5014369;28;20092;-76
2021/11/19 04:15:35;;;;;;;26.67;7.63;;;;;;;12.22;100.00;102919.97;5015227;28;20041;-76
2021/11/19 04:18:00;;;;;;;20.95;8.15;;;;;;;12.21;100.00;102920.81;5018444;28;20030;-76
2021/11/19 04:20:26;;;;;;;18.17;7.15;;;;;;;12.22;100.00;102919.97;5014472;28;20129;-76
2021/11/19 04:22:51;;;;;;;23.42;8.32;;;;;;;12.25;100.00;102925.38;5014033;28;20084;-77
2021/11/19 04:25:19;;;;;;;21.38;7.20;;;;;;;12.23;100.00;102921.78;5013372;28;20021;-76
2021/11/19 04:27:45;;;;;;;26.52;6.63;;;;;;;12.24;100.00;102923.59;5014058;28;20157;-76
2021/11/19 04:30:18;;;;;;;21.27;6.70;;;;;;;12.22;100.00;102922.63;5012311;28;20491;-76
2021/11/19 04:32:45;;;;;;;19.77;7.38;;;;;;;12.22;100.00;102930.53;5011733;28;20030;-77
2021/11/19 04:35:11;;;;;;;24.98;7.90;;;;;;;12.21;100.00;102927.00;5014121;28;20049;-75
2021/11/19 04:37:37;;;;;;;22.00;8.10;;;;;;;12.20;100.00;102925.19;4997302;28;20038;-76
2021/11/19 04:40:05;;;;;;;19.33;7.05;;;;;;;12.22;100.00;102925.25;5012356;28;20037;-76
2021/11/19 04:42:30;;;;;;;15.60;7.15;;;;;;;12.21;100.00;102912.88;5012390;28;20048;-76
2021/11/19 04:44:55;;;;;;;15.05;5.90;;;;;;;12.20;100.00;102921.66;5013377;28;20030;-76
2021/11/19 04:47:21;;;;;;;16.52;5.70;;;;;;;12.20;100.00;102921.66;5012644;28;20026;-76
2021/11/19 04:49:46;;;;;;;18.35;6.72;;;;;;;12.20;100.00;102917.28;5013501;28;20022;-76
2021/11/19 04:52:14;;;;;;;17.60;6.72;;;;;;;12.20;100.00;102916.38;5013375;28;20026;-78
2021/11/19 04:54:40;;;;;;;20.70;7.22;;;;;;;12.22;100.00;102919.97;5026590;28;20095;-77
2021/11/19 04:57:07;;;;;;;20.52;6.47;;;;;;;12.24;100.00;102918.31;4995868;28;20045;-77
2021/11/19 04:59:33;;;;;;;16.15;5.60;;;;;;;12.18;100.00;102912.75;5014702;28;20036;-77
2021/11/19 05:02:02;;;;;;;15.40;6.25;;;;;;;12.13;100.00;102926.66;5013413;28;20057;-76
2021/11/19 05:04:28;;;;;;;20.02;6.70;;;;;;;12.14;100.00;102923.19;5015540;28;20029;-76
2021/11/19 05:06:54;;;;;;;14.20;6.00;;;;;;;12.13;100.00;102921.38;5013254;28;20030;-77
2021/11/19 05:09:20;;;;;;;13.45;5.65;;;;;;;12.14;100.00;102919.66;5013456;28;20034;-77
2021/11/19 05:12:11;;;;;;;23.42;6.45;;;;;;;12.15;100.00;102921.44;5013351;28;20030;-78
2021/11/19 05:14:37;;;;;;;20.98;6.47;;;;;;;12.16;100.00;102911.81;5006015;28;20046;-77
2021/11/19 05:17:05;;;;;;;16.88;6.72;;;;;;;12.13;100.00;102909.94;5018378;28;20387;-77
2021/11/19 05:19:30;;;;;;;16.88;6.38;;;;;;;12.13;100.00;102913.47;5010445;28;20046;-77
2021/11/19 05:21:57;;;;;;;21.10;6.10;;;;;;;12.11;100.00;102912.50;5014620;28;20536;-77
2021/11/19 05:24:23;;;;;;;19.10;5.82;;;;;;;12.11;100.00;102912.50;5013101;28;20140;-77
2021/11/19 05:26:48;;;;;;;23.85;6.60;;;;;;;12.12;100.00;102916.03;5014155;28;20112;-76
2021/11/19 05:29:15;;;;;;;21.58;5.72;;;;;;;12.10;100.00;102915.06;5013048;28;20088;-76
2021/11/19 05:31:41;;;;;;;17.42;6.80;;;;;;;12.10;100.00;102922.97;5011655;28;20397;-77
2021/11/19 05:34:08;;;;;;;13.30;5.85;;;;;;;12.10;100.00;102913.34;5006548;28;20026;-77
2021/11/19 05:36:33;;;;;;;18.42;5.65;;;;;;;12.10;100.00;102915.97;5012040;28;20061;-77
2021/11/19 05:38:59;;;;;;;15.73;6.03;;;;;;;12.09;100.00;102923.84;5011628;28;20124;-75
2021/11/19 05:41:26;;;;;;;24.35;5.53;;;;;;;12.08;100.00;102922.03;5027242;28;20026;-76
2021/11/19 05:43:54;;;;;;;17.25;5.97;;;;;;;12.11;100.00;102922.16;5013797;28;20037;-76
2021/11/19 05:46:23;;;;;;;17.73;5.28;;;;;;;12.09;100.00;102924.72;5010292;28;20109;-77
2021/11/19 05:48:51;;;;;;;18.30;5.57;;;;;;;12.10;100.00;102930.88;5014609;28;20030;-77
2021/11/19 05:51:17;;;;;;;15.40;5.90;;;;;;;12.10;100.00;102931.81;5013507;28;20124;-77
2021/11/19 05:53:44;;;;;;;16.17;5.22;;;;;;;12.07;100.00;102923.78;5012340;28;20479;-77
2021/11/19 05:56:10;;;;;;;21.48;5.47;;;;;;;12.07;100.00;102921.13;5012584;28;20576;-77
2021/11/19 05:58:36;;;;;;;22.10;5.63;;;;;;;12.10;100.00;102928.25;5019844;28;20100;-77
2021/11/19 06:01:08;;;;;;;14.45;5.13;;;;;;;12.11;100.00;102927.44;5009130;28;20083;-76
2021/11/19 06:03:34;;;;;;;17.60;5.18;;;;;;;12.08;100.00;102925.56;5013022;28;20025;-77
2021/11/19 06:06:01;;;;;;;17.63;5.35;;;;;;;12.06;100.00;102924.59;5013852;28;20109;-77
2021/11/19 06:08:27;;;;;;;13.60;5.78;;;;;;;12.07;100.00;102930.75;5011890;28;20034;-77
2021/11/19 06:10:56;;;;;;;18.85;5.65;;;;;;;12.09;100.00;102929.13;5012100;28;20496;-76
2021/11/19 06:13:29;;;;;;;17.20;4.78;;;;;;;12.09;100.00;102935.28;5012446;28;20022;-76
2021/11/19 06:16:01;;;;;;;18.80;5.13;;;;;;;12.07;100.00;102936.03;5010875;28;20037;-76
2021/11/19 06:18:30;;;;;;;12.55;4.20;;;;;;;12.10;100.00;102934.47;5013126;28;20068;-77
2021/11/19 06:21:00;;;;;;;14.43;4.15;;;;;;;12.07;100.00;102929.06;5012343;28;20478;-76
2021/11/19 06:23:33;;;;;;;16.70;4.82;;;;;;;12.09;100.00;102924.72;5011279;28;20183;-72
2021/11/19 06:26:01;;;;;;;17.27;5.15;;;;;;;12.06;100.00;102926.31;5005414;28;20060;-72
2021/11/19 06:28:33;;;;;;;15.20;4.82;;;;;;;12.06;100.00;102923.69;5011783;28;20401;-75
2021/11/19 06:30:59;;;;;;;21.17;4.97;;;;;;;12.04;100.00;102934.16;5012545;28;20042;-74
2021/11/19 06:33:25;;;;;;;12.98;4.30;;;;;;;12.00;100.00;102939.25;5013126;28;20029;-73
2021/11/19 06:35:51;;;;;;;13.70;4.43;;;;;;;12.00;100.00;102932.22;5012791;28;20040;-75
2021/11/19 06:38:18;;;;;;;16.20;4.35;;;;;;;12.00;100.00;102934.88;5008847;28;20044;-76
2021/11/19 06:40:44;;;;;;;18.45;5.10;;;;;;;11.98;100.00;102939.19;5012036;28;20046;-75
2021/11/19 06:43:09;;;;;;;12.57;3.85;;;;;;;11.97;100.00;102940.91;5000386;28;20022;-74
2021/11/19 06:45:35;;;;;;;14.40;4.53;;;;;;;11.97;100.00;102943.53;5010986;28;20458;-73
2021/11/19 06:48:03;;;;;;;17.80;4.60;;;;;;;11.96;100.00;102939.13;5008527;28;20442;-74
2021/11/19 06:50:30;;;;;;;16.10;4.25;;;;;;;11.98;100.00;102944.47;5014714;28;21344;-74
2021/11/19 06:52:56;;;;;;;17.38;4.35;;;;;;;11.97;100.00;102943.53;5006037;28;20061;-74
2021/11/19 06:55:22;;;;;;;13.45;4.85;;;;;;;11.93;100.00;102943.31;5012764;28;20076;-72
2021/11/19 06:57:48;;;;;;;13.15;4.43;;;;;;;11.87;100.00;102948.31;5012828;28;20108;-73
2021/11/19 07:00:24;;;;;;;13.57;4.18;;;;;;;11.84;100.00;102958.72;5011836;28;20108;-74
2021/11/19 07:02:49;;;;;;;14.18;4.68;;;;;;;11.82;100.00;102956.91;5009816;28;20030;-76
2021/11/19 07:05:16;;;;;;;18.85;4.88;;;;;;;11.82;100.00;102956.91;5008864;28;20028;-75
2021/11/19 07:07:41;;;;;;;17.50;4.20;;;;;;;11.81;100.00;102965.69;5008873;28;20385;-75
2021/11/19 07:10:08;;;;;;;12.65;4.43;;;;;;;11.80;100.00;102973.50;5011004;28;20034;-74
2021/11/19 07:12:33;;;;;;;19.63;4.78;;;;;;;11.81;100.00;102973.59;5010058;28;20064;-75
2021/11/19 07:14:59;;;;;;;11.38;3.63;;;;;;;11.82;100.00;102982.41;5004954;28;20049;-74
2021/11/19 07:17:24;;;;;;;28.00;5.15;;;;;;;11.82;100.00;102975.38;5011760;28;20025;-74
2021/11/19 07:19:51;;;;;;;11.18;3.92;;;;;;;11.82;100.00;102978.03;5026893;28;20042;-75
2021/11/19 07:22:17;;;;;;;14.13;3.47;;;;;;;11.84;100.00;102974.56;5013324;28;20339;-75
2021/11/19 07:24:42;;;;;;;12.82;4.30;;;;;;;11.83;100.00;102973.66;5013855;28;20041;-74
2021/11/19 07:27:11;;;;;;;13.52;3.92;;;;;;;11.85;100.00;102979.00;5015298;28;20037;-75
2021/11/19 07:29:36;;;;;;;10.43;3.38;;;;;;;11.84;100.00;102993.03;5015207;28;20049;-76
2021/11/19 07:32:02;;;;;;;12.10;3.72;;;;;;;11.83;100.00;102992.13;5016130;28;20037;-73
2021/11/19 07:34:28;;;;;;;13.80;3.92;;;;;;;11.86;100.00;102994.00;5016341;28;20085;-75
2021/11/19 07:36:54;;;;;;;17.20;4.07;;;;;;;11.88;100.00;102994.97;5015073;28;20057;-76
2021/11/19 07:39:19;;;;;;;9.48;3.78;;;;;;;11.88;100.00;102987.97;5007734;28;20064;-75
2021/11/19 07:41:45;;;;;;;16.23;3.80;;;;;;;11.89;100.00;102994.16;5014466;28;20092;-77
2021/11/19 07:44:10;;;;;;;21.15;3.80;;;;;;;11.91;100.00;102987.19;5014635;28;20037;-77
2021/11/19 07:46:36;;;;;;;15.35;3.95;;;;;;;11.89;100.00;102984.47;5015708;28;20038;-74
2021/11/19 07:49:03;;;;;;;16.20;3.53;;;;;;;11.91;100.00;102995.09;5016265;28;20024;-76
2021/11/19 07:51:32;;;;;;;13.63;3.38;;;;;;;11.93;100.00;103009.28;5015349;28;20096;-76
2021/11/19 07:53:58;;;;;;;18.90;3.70;;;;;;;11.93;100.00;103006.66;5015508;28;20572;-75
2021/11/19 07:56:29;;;;;;;14.27;3.45;;;;;;;11.95;100.00;103011.19;5014854;28;20065;-76
2021/11/19 07:59:00;;;;;;;9.27;2.80;;;;;;;11.99;100.00;103014.84;5014734;28;20033;-76
2021/11/19 08:01:25;;;;;;;10.38;3.42;;;;;;;11.98;100.00;103000.78;5015348;28;20109;-77
2021/11/19 08:03:50;;;;;;;17.52;3.80;;;;;;;12.04;100.00;103009.81;5015635;28;20061;-76
2021/11/19 08:06:27;;;;;;;14.68;3.47;;;;;;;12.04;100.00;103010.69;5014149;28;20045;-76
2021/11/19 08:08:52;;;;;;;12.50;3.38;;;;;;;12.05;100.00;103015.16;5013065;28;20568;-75
2021/11/19 08:11:20;;;;;;;16.95;3.20;;;;;;;12.06;100.00;103014.31;5014937;28;20109;-76
2021/11/19 08:13:46;;;;;;;16.25;3.70;;;;;;;12.05;100.00;103009.88;5014316;28;20040;-76
2021/11/19 08:16:12;;;;;;;12.10;3.13;;;;;;;12.07;100.00;103013.50;5007311;28;20022;-75
2021/11/19 08:18:46;;;;;;;16.23;3.88;;;;;;;12.10;100.00;103016.25;5015063;28;20041;-75
2021/11/19 08:21:13;;;;;;;11.65;3.58;;;;;;;12.11;100.00;103012.81;5013276;28;20105;-75
2021/11/19 08:23:47;;;;;;;11.48;3.58;;;;;;;12.15;100.00;103024.38;5014312;28;20516;-75
2021/11/19 08:26:24;;;;;;;17.23;3.08;;;;;;;12.14;100.00;103012.94;5012339;28;20075;-75
2021/11/19 08:28:50;;;;;;;11.38;3.20;;;;;;;12.17;100.00;103005.97;5014901;28;20053;-75
2021/11/19 08:31:22;;;;;;;13.43;3.45;;;;;;;12.17;100.00;103003.31;5008277;28;20097;-76
2021/11/19 08:33:58;;;;;;;14.25;3.22;;;;;;;12.18;100.00;103010.41;5003957;28;20052;-78
2021/11/19 08:36:29;;;;;;;14.00;2.80;;;;;;;12.20;100.00;103011.41;5022599;28;20479;-78
2021/11/19 08:38:55;;;;;;;12.18;3.75;;;;;;;12.23;100.00;103011.53;5020932;28;20026;-78
2021/11/19 08:41:22;;;;;;;14.48;3.08;;;;;;;12.21;100.00;103014.09;5012233;28;20046;-77
2021/11/19 08:43:52;;;;;;;13.10;3.35;;;;;;;12.22;100.00;103021.22;5005973;28;20017;-76
2021/11/19 08:46:31;;;;;;;14.77;3.00;;;;;;;12.29;100.00;103017.09;5010352;28;20689;-76
2021/11/19 08:48:58;;;;;;;12.55;3.50;;;;;;;12.28;100.00;103016.19;5002501;28;20018;-77
2021/11/19 08:51:27;;;;;;;9.98;3.47;;;;;;;12.36;100.00;103021.81;5006730;28;20485;-76
2021/11/19 08:53:55;;;;;;;14.77;3.10;;;;;;;12.34;100.00;103023.47;5005574;28;20038;-76
2021/11/19 08:56:22;;;;;;;12.30;3.63;;;;;;;12.34;100.00;103023.47;5014607;28;20105;-76
2021/11/19 08:58:49;;;;;;;12.98;2.97;;;;;;;12.36;100.00;103034.09;5014417;28;20025;-77
2021/11/19 09:01:17;;;;;;;10.77;3.95;;;;;;;12.31;100.00;103034.78;5012177;28;20141;-77
2021/11/19 09:03:43;;;;;;;13.63;3.28;;;;;;;12.29;100.00;103027.66;5012625;28;20091;-77
2021/11/19 09:06:11;;;;;;;14.48;3.22;;;;;;;12.30;100.00;103040.00;5010343;28;20030;-76
2021/11/19 09:08:38;;;;;;;13.50;3.28;;;;;;;12.27;100.00;103029.31;5017009;28;20117;-76
2021/11/19 09:11:05;;;;;;;11.40;4.05;;;;;;;12.35;100.00;103033.19;5006504;28;20029;-77
2021/11/19 09:13:32;;;;;;;13.60;3.35;;;;;;;12.52;100.00;103025.13;4994073;28;20033;-76
2021/11/19 09:15:59;;;;;;;13.02;2.72;;;;;;;12.60;100.00;103028.97;5005638;28;20033;-77
2021/11/19 09:18:33;;;;;;;13.15;3.20;;;;;;;12.58;100.00;103030.69;5013455;28;20053;-77
2021/11/19 09:21:07;;;;;;;10.15;2.72;;;;;;;12.67;100.00;103031.06;4998310;28;20054;-77
2021/11/19 09:23:37;;;;;;;14.95;3.65;;;;;;;12.73;100.00;103026.03;5002796;28;20038;-77
2021/11/19 09:26:12;;;;;;;11.23;3.58;;;;;;;12.80;100.00;103028.13;5008240;28;20062;-77
2021/11/19 09:28:40;;;;;;;10.00;2.95;;;;;;;12.85;100.00;103030.06;5003062;28;20120;-75
2021/11/19 09:31:07;;;;;;;8.82;2.75;;;;;;;12.92;100.00;103027.72;5005056;28;20088;-76
2021/11/19 09:33:34;;;;;;;10.32;2.53;;;;;;;12.99;100.00;103034.16;4997657;28;20044;-76
2021/11/19 09:35:59;;;;;;;12.60;3.00;;;;;;;13.12;99.89;103031.19;5008120;28;20026;-77
2021/11/19 09:38:27;;;;;;;9.85;2.80;;;;;;;13.36;99.24;103025.16;5007728;28;20111;-76
2021/11/19 09:41:01;;;;;;;12.75;2.63;;;;;;;13.52;97.22;103031.03;5004704;28;20068;-75
2021/11/19 09:43:46;;;;;;;7.15;2.50;;;;;;;13.57;96.81;103032.13;5014337;28;20168;-76
2021/11/19 09:46:40;;;;;;;12.23;2.92;;;;;;;13.72;96.64;103019.50;5005051;28;20125;-76
2021/11/19 09:49:08;;;;;;;11.32;2.53;;;;;;;14.00;94.40;103025.84;5004844;28;20073;-75
2021/11/19 09:52:06;;;;;;;5.90;2.25;;;;;;;14.20;92.83;103009.78;5009918;28;20389;-76
2021/11/19 09:54:50;;;;;;;12.25;2.42;;;;;;;14.38;91.77;103018.41;5003489;28;20097;-76
2021/11/19 09:57:47;;;;;;;8.43;2.70;;;;;;;14.49;90.73;103016.13;5025825;28;20052;-75
2021/11/19 10:00:23;;;;;;;11.57;2.08;;;;;;;14.72;90.46;103019.63;5001976;28;20470;-77
2021/11/19 10:03:13;;;;;;;9.20;2.45;;;;;;;14.90;89.50;103026.41;5010773;28;20041;-76
2021/11/19 10:05:46;;;;;;;7.93;1.83;;;;;;;15.08;87.95;103023.44;5009891;28;20085;-76
2021/11/19 10:08:43;;;;;;;7.38;1.98;;;;;;;15.14;87.30;103024.56;5001965;28;20037;-75
2021/11/19 10:11:26;;;;;;;10.48;2.28;;;;;;;15.47;85.69;103021.16;5001949;28;20044;-76
2021/11/19 10:14:21;;;;;;;7.70;1.60;;;;;;;15.82;84.84;103021.38;5007564;28;20034;-75
2021/11/19 10:17:02;;;;;;;9.18;1.85;;;;;;;15.95;82.48;103012.03;5009221;28;20406;-76
2021/11/19 10:19:31;;;;;;;5.70;1.85;;;;;;;16.14;81.52;103013.47;5002076;28;20042;-76
2021/11/19 10:22:11;;;;;;;9.25;1.85;;;;;;;16.24;80.43;103014.63;5007907;28;20030;-76
2021/11/19 10:24:43;;;;;;;9.05;2.78;;;;;;;16.29;79.68;103002.38;5003026;28;20037;-75
2021/11/19 10:27:12;;;;;;;9.52;1.85;;;;;;;16.32;80.30;103018.38;4998816;28;20033;-76
2021/11/19 10:30:04;;;;;;;8.18;2.03;;;;;;;16.22;79.75;103011.00;5001632;28;20484;-74
2021/11/19 10:32:31;;;;;;;10.00;2.20;;;;;;;15.49;82.21;103010.59;5019809;28;21705;-73
2021/11/19 10:35:07;;;;;;;10.02;1.90;;;;;;;15.14;84.33;103024.56;5000042;28;20502;-75
2021/11/19 10:37:54;;;;;;;12.50;1.85;;;;;;;15.01;84.50;103028.53;5010750;28;20034;-74
2021/11/19 10:40:53;;;;;;;10.23;2.83;;;;;;;14.42;87.60;103030.91;5004290;28;20048;-73
2021/11/19 10:43:51;;;;;;;7.65;2.22;;;;;;;14.50;88.24;103031.16;5005031;28;20038;-74
2021/11/19 10:46:47;;;;;;;6.78;2.38;;;;;;;14.58;88.66;103028.78;4996367;28;20479;-75
2021/11/19 10:49:43;;;;;;;10.40;2.08;;;;;;;14.87;87.20;103029.84;5007078;28;20027;-74
2021/11/19 10:52:45;;;;;;;14.18;2.63;;;;;;;15.28;85.93;103022.34;5011914;28;20029;-76
2021/11/19 10:55:42;;;;;;;3.92;1.60;;;;;;;15.83;82.74;103025.84;5013375;28;20037;-76
2021/11/19 10:58:44;;;;;;;4.90;1.70;;;;;;;16.05;81.79;103013.19;5010050;28;20041;-77
2021/11/19 11:01:14;;;;;;;6.65;1.60;;;;;;;16.08;81.78;103023.91;5008611;28;20084;-77
2021/11/19 11:03:57;;;;;;;10.20;1.77;;;;;;;16.26;79.88;103017.31;5013128;28;20042;-77
2021/11/19 11:06:43;;;;;;;6.22;1.67;;;;;;;16.23;80.04;103017.25;5011765;28;20034;-77
2021/11/19 11:09:24;;;;;;;6.80;1.63;;;;;;;16.16;80.44;103017.06;5012321;28;20025;-77
2021/11/19 11:12:07;;;;;;;7.70;2.03;;;;;;;16.66;77.47;103013.97;5014075;28;20042;-75
2021/11/19 11:14:34;;;;;;;5.47;1.42;;;;;;;16.92;76.91;103004.91;5025266;28;20105;-77
2021/11/19 11:17:31;;;;;;;6.57;1.60;;;;;;;16.64;77.16;103014.78;5003588;28;20034;-77
2021/11/19 11:19:59;;;;;;;12.10;1.90;;;;;;;16.34;77.61;103015.78;5004033;28;20033;-76
2021/11/19 11:22:32;;;;;;;8.55;1.63;;;;;;;15.62;80.69;103020.75;4999657;28;20080;-77
2021/11/19 11:25:03;;;;;;;6.45;1.48;;;;;;;15.23;82.27;103034.56;4999299;28;20030;-76
2021/11/19 11:27:36;;;;;;;12.35;1.65;;;;;;;15.30;82.76;103030.34;5012952;28;20034;-76
2021/11/19 11:30:15;;;;;;;5.07;1.67;;;;;;;14.99;83.84;103024.94;5005068;28;20474;-75